Time,TemperatureF,DewpointF,PressureIn,WindDirection,WindDirectionDegrees,WindSpeedMPH,WindSpeedGustMPH,Humidity,HourlyPrecipIn,Conditions,Clouds,dailyrainin,SoftwareType,DateUTC
2013-05-15 00:02:00,72.0,-99.9,30.14,SW,224,5.0,6.0,-999,-99.99,,,-99.99,,2013-05-15 10:02:00,
2013-05-15 00:13:00,72.0,-99.9,30.14,SSW,196,4.0,6.0,-999,-99.99,,,-99.99,,2013-05-15 10:13:00,
2013-05-15 00:23:00,72.0,-99.9,30.13,SSW,213,5.0,6.0,-999,-99.99,,,-99.99,,2013-05-15 10:23:00,
2013-05-15 00:32:00,72.0,-99.9,30.13,SW,220,3.0,6.0,-999,-99.99,,,-99.99,,2013-05-15 10:32:00,
2013-05-15 00:43:00,72.0,-99.9,30.13,SSW,208,5.0,7.0,-999,-99.99,,,-99.99,,2013-05-15 10:43:00,
2013-05-15 00:53:00,72.0,-99.9,30.13,SW,219,4.0,6.0,-999,-99.99,,,-99.99,,2013-05-15 10:53:00,
2013-05-15 01:14:00,72.0,-99.9,30.12,SSW,203,5.0,6.0,-999,-99.99,,,-99.99,,2013-05-15 11:14:00,
2013-05-15 01:19:00,72.0,-99.9,30.12,SSW,203,5.0,6.0,-999,-99.99,,,-99.99,,2013-05-15 11:19:00,
2013-05-15 01:29:00,72.0,-99.9,30.11,SW,236,6.0,8.0,-999,-99.99,,,-99.99,,2013-05-15 11:29:00,
2013-05-15 01:50:00,71.0,-99.9,30.11,SSW,192,3.0,4.0,-999,-99.99,,,-99.99,,2013-05-15 11:50:00,
2013-05-15 02:02:00,72.0,-99.9,30.11,SSW,206,5.0,7.0,-999,-99.99,,,-99.99,,2013-05-15 12:02:00,
2013-05-15 02:11:00,71.0,-99.9,30.10,SW,225,5.0,7.0,-999,-99.99,,,-99.99,,2013-05-15 12:11:00,
2013-05-15 02:30:00,71.0,-99.9,30.10,SSW,210,3.0,5.0,-999,-99.99,,,-99.99,,2013-05-15 12:30:00,
2013-05-15 02:38:00,71.0,-99.9,30.10,South,184,4.0,5.0,-999,-99.99,,,-99.99,,2013-05-15 12:38:00,
2013-05-15 02:49:00,71.0,-99.9,30.09,SW,223,3.0,5.0,-999,-99.99,,,-99.99,,2013-05-15 12:49:00,
2013-05-15 02:58:00,71.0,-99.9,30.09,SSW,202,6.0,6.0,-999,-99.99,,,-99.99,,2013-05-15 12:58:00,
2013-05-15 03:12:00,71.0,-99.9,30.09,SSW,204,4.0,6.0,-999,-99.99,,,-99.99,,2013-05-15 13:12:00,
2013-05-15 03:19:00,71.0,-99.9,30.09,SSW,206,4.0,5.0,-999,-99.99,,,-99.99,,2013-05-15 13:19:00,
2013-05-15 03:28:00,71.0,-99.9,30.09,SW,219,3.0,4.0,-999,-99.99,,,-99.99,,2013-05-15 13:28:00,
2013-05-15 03:37:00,71.0,-99.9,30.09,SSW,201,3.0,4.0,-999,-99.99,,,-99.99,,2013-05-15 13:37:00,
2013-05-15 03:48:00,71.0,-99.9,30.08,SW,218,4.0,4.0,-999,-99.99,,,-99.99,,2013-05-15 13:48:00,
2013-05-15 04:00:00,71.0,-99.9,30.09,SSE,160,2.0,5.0,-999,-99.99,,,-99.99,,2013-05-15 14:00:00,
2013-05-15 04:08:00,71.0,-99.9,30.08,SSE,165,4.0,6.0,-999,-99.99,,,-99.99,,2013-05-15 14:08:00,
2013-05-15 04:14:00,70.0,-99.9,30.08,South,176,5.0,8.0,-999,-99.99,,,-99.99,,2013-05-15 14:14:00,
2013-05-15 04:28:00,70.0,-99.9,30.08,South,190,8.0,9.0,-999,-99.99,,,-99.99,,2013-05-15 14:28:00,
2013-05-15 04:39:00,71.0,-99.9,30.08,SSW,205,6.0,9.0,-999,-99.99,,,-99.99,,2013-05-15 14:39:00,
2013-05-15 04:52:00,71.0,-99.9,30.09,SSW,200,7.0,11.0,-999,-99.99,,,-99.99,,2013-05-15 14:52:00,
2013-05-15 05:00:00,71.0,-99.9,30.09,SW,225,8.0,10.0,-999,-99.99,,,-99.99,,2013-05-15 15:00:00,
2013-05-15 05:10:00,71.0,-99.9,30.09,SSW,210,5.0,9.0,-999,-99.99,,,-99.99,,2013-05-15 15:10:00,
2013-05-15 05:16:00,71.0,-99.9,30.10,SSE,163,3.0,7.0,-999,-99.99,,,-99.99,,2013-05-15 15:16:00,
2013-05-15 05:29:00,71.0,-99.9,30.10,SE,133,1.0,7.0,-999,-99.99,,,-99.99,,2013-05-15 15:29:00,
2013-05-15 05:50:00,71.0,-99.9,30.10,WSW,238,8.0,9.0,-999,-99.99,,,-99.99,,2013-05-15 15:50:00,
2013-05-15 06:02:00,71.0,-99.9,30.10,WSW,237,8.0,9.0,-999,-99.99,,,-99.99,,2013-05-15 16:02:00,
2013-05-15 06:10:00,71.0,-99.9,30.10,SW,233,5.0,6.0,-999,-99.99,,,-99.99,,2013-05-15 16:10:00,
2013-05-15 06:24:00,70.0,-99.9,30.11,SSW,197,2.0,4.0,-999,-99.99,,,-99.99,,2013-05-15 16:24:00,
2013-05-15 06:40:00,71.0,-99.9,30.11,WSW,239,6.0,8.0,-999,-99.99,,,-99.99,,2013-05-15 16:40:00,
2013-05-15 06:52:00,70.0,-99.9,30.11,SW,218,3.0,5.0,-999,-99.99,,,-99.99,,2013-05-15 16:52:00,
2013-05-15 07:02:00,71.0,-99.9,30.11,SW,222,5.0,6.0,-999,-99.99,,,-99.99,,2013-05-15 17:02:00,
2013-05-15 07:21:00,72.0,-99.9,30.12,WSW,239,9.0,10.0,-999,-99.99,,,-99.99,,2013-05-15 17:21:00,
2013-05-15 07:29:00,72.0,-99.9,30.12,WSW,238,7.0,9.0,-999,-99.99,,,-99.99,,2013-05-15 17:29:00,
2013-05-15 07:39:00,73.0,-99.9,30.12,WSW,248,11.0,13.0,-999,-99.99,,,-99.99,,2013-05-15 17:39:00,
2013-05-15 07:49:00,74.0,-99.9,30.13,WSW,239,6.0,9.0,-999,-99.99,,,-99.99,,2013-05-15 17:49:00,
2013-05-15 07:59:00,74.0,-99.9,30.13,SSW,203,3.0,6.0,-999,-99.99,,,-99.99,,2013-05-15 17:59:00,
2013-05-15 08:08:00,76.0,-99.9,30.14,South,174,4.0,6.0,-999,-99.99,,,-99.99,,2013-05-15 18:08:00,
2013-05-15 08:28:00,75.0,-99.9,30.14,SW,232,6.0,7.0,-999,-99.99,,,-99.99,,2013-05-15 18:28:00,
2013-05-15 08:50:00,78.0,-99.9,30.14,NW,305,2.0,4.0,-999,-99.99,,,-99.99,,2013-05-15 18:50:00,
2013-05-15 08:58:00,78.0,-99.9,30.14,NW,314,3.0,3.0,-999,-99.99,,,-99.99,,2013-05-15 18:58:00,
2013-05-15 09:09:00,77.0,-99.9,30.15,NNW,332,3.0,4.0,-999,-99.99,,,-99.99,,2013-05-15 19:09:00,
2013-05-15 09:16:00,79.0,-99.9,30.15,NE,38,3.0,4.0,-999,-99.99,,,-99.99,,2013-05-15 19:16:00,
2013-05-15 09:31:00,79.0,-99.9,30.15,NE,42,4.0,5.0,-999,-99.99,,,-99.99,,2013-05-15 19:31:00,
2013-05-15 09:39:00,79.0,-99.9,30.15,NE,45,7.0,10.0,-999,-99.99,,,-99.99,,2013-05-15 19:39:00,
2013-05-15 09:59:00,80.0,-99.9,30.15,West,272,3.0,3.0,-999,-99.99,,,-99.99,,2013-05-15 19:59:00,
2013-05-15 10:10:00,81.0,-99.9,30.15,NNE,33,6.0,8.0,-999,-99.99,,,-99.99,,2013-05-15 20:10:00,
2013-05-15 10:31:00,81.0,-99.9,30.15,NE,34,8.0,9.0,-999,-99.99,,,-99.99,,2013-05-15 20:31:00,
2013-05-15 10:40:00,80.0,-99.9,30.15,NE,47,10.0,11.0,-999,-99.99,,,-99.99,,2013-05-15 20:40:00,
2013-05-15 10:47:00,79.0,-99.9,30.15,NE,47,5.0,12.0,-999,-99.99,,,-99.99,,2013-05-15 20:47:00,
2013-05-15 11:00:00,79.0,-99.9,30.15,NE,45,8.0,12.0,-999,-99.99,,,-99.99,,2013-05-15 21:00:00,
2013-05-15 11:09:00,77.0,-99.9,30.16,ENE,58,12.0,25.0,-999,-99.99,,,-99.99,,2013-05-15 21:09:00,
2013-05-15 11:21:00,74.0,-99.9,30.16,NE,53,14.0,19.0,-999,-99.99,,,-99.99,,2013-05-15 21:21:00,
2013-05-15 11:28:00,75.0,-99.9,30.15,ENE,64,9.0,16.0,-999,-99.99,,,-99.99,,2013-05-15 21:28:00,
2013-05-15 11:42:00,77.0,-99.9,30.15,ENE,75,8.0,13.0,-999,-99.99,,,-99.99,,2013-05-15 21:42:00,
2013-05-15 11:54:00,79.0,-99.9,30.15,East,85,13.0,16.0,-999,-99.99,,,-99.99,,2013-05-15 21:54:00,
2013-05-15 12:01:00,81.0,-99.9,30.14,East,79,9.0,15.0,-999,-99.99,,,-99.99,,2013-05-15 22:01:00,
2013-05-15 12:19:00,83.0,-99.9,30.14,South,171,5.0,8.0,-999,-99.99,,,-99.99,,2013-05-15 22:19:00,
2013-05-15 12:30:00,83.0,-99.9,30.13,SSE,164,6.0,10.0,-999,-99.99,,,-99.99,,2013-05-15 22:30:00,
2013-05-15 12:43:00,79.0,-99.9,30.13,WSW,252,6.0,9.0,-999,-99.99,,,-99.99,,2013-05-15 22:43:00,
2013-05-15 12:53:00,78.0,-99.9,30.13,NW,325,3.0,4.0,-999,-99.99,,,-99.99,,2013-05-15 22:53:00,
2013-05-15 13:00:00,79.0,-99.9,30.13,West,259,2.0,6.0,-999,-99.99,,,-99.99,,2013-05-15 23:00:00,
2013-05-15 13:10:00,79.0,-99.9,30.13,NNW,343,2.0,3.0,-999,-99.99,,,-99.99,,2013-05-15 23:10:00,
2013-05-15 13:18:00,78.0,-99.9,30.13,NNW,342,3.0,4.0,-999,-99.99,,,-99.99,,2013-05-15 23:18:00,
2013-05-15 13:31:00,78.0,-99.9,30.12,North,351,3.0,3.0,-999,-99.99,,,-99.99,,2013-05-15 23:31:00,
2013-05-15 13:40:00,79.0,-99.9,30.12,North,351,2.0,3.0,-999,-99.99,,,-99.99,,2013-05-15 23:40:00,
2013-05-15 13:51:00,78.0,-99.9,30.12,NNW,328,3.0,6.0,-999,-99.99,,,-99.99,,2013-05-15 23:51:00,
2013-05-15 14:01:00,78.0,-99.9,30.12,West,260,7.0,8.0,-999,-99.99,,,-99.99,,2013-05-16 00:01:00,
2013-05-15 14:09:00,79.0,-99.9,30.11,WNW,294,6.0,8.0,-999,-99.99,,,-99.99,,2013-05-16 00:09:00,
2013-05-15 14:27:00,81.0,-99.9,30.11,WNW,288,7.0,9.0,-999,-99.99,,,-99.99,,2013-05-16 00:27:00,
2013-05-15 14:37:00,82.0,-99.9,30.11,WNW,291,5.0,8.0,-999,-99.99,,,-99.99,,2013-05-16 00:37:00,
2013-05-15 14:52:00,83.0,-99.9,30.11,WNW,287,4.0,6.0,-999,-99.99,,,-99.99,,2013-05-16 00:52:00,
2013-05-15 14:59:00,79.0,-99.9,30.10,NNE,19,7.0,10.0,-999,-99.99,,,-99.99,,2013-05-16 00:59:00,
2013-05-15 15:09:00,79.0,-99.9,30.10,NNE,15,7.0,9.0,-999,-99.99,,,-99.99,,2013-05-16 01:09:00,
2013-05-15 15:30:00,85.0,-99.9,30.10,ENE,72,5.0,11.0,-999,-99.99,,,-99.99,,2013-05-16 01:30:00,
2013-05-15 15:40:00,88.0,-99.9,30.10,ENE,58,4.0,12.0,-999,-99.99,,,-99.99,,2013-05-16 01:40:00,
2013-05-15 15:50:00,88.0,-99.9,30.10,East,81,8.0,12.0,-999,-99.99,,,-99.99,,2013-05-16 01:50:00,
2013-05-15 16:02:00,88.0,-99.9,30.09,ESE,111,5.0,11.0,-999,-99.99,,,-99.99,,2013-05-16 02:02:00,
2013-05-15 16:08:00,82.0,-99.9,30.09,NE,44,10.0,12.0,-999,-99.99,,,-99.99,,2013-05-16 02:08:00,
2013-05-15 16:18:00,82.0,-99.9,30.09,NE,45,11.0,14.0,-999,-99.99,,,-99.99,,2013-05-16 02:18:00,
2013-05-15 16:29:00,82.0,-99.9,30.09,NE,45,11.0,14.0,-999,-99.99,,,-99.99,,2013-05-16 02:29:00,
2013-05-15 16:40:00,82.0,-99.9,30.09,NE,45,13.0,17.0,-999,-99.99,,,-99.99,,2013-05-16 02:40:00,
2013-05-15 16:49:00,82.0,-99.9,30.09,NE,45,13.0,17.0,-999,-99.99,,,-99.99,,2013-05-16 02:49:00,
2013-05-15 17:07:00,83.0,-99.9,30.09,NE,47,8.0,19.0,-999,-99.99,,,-99.99,,2013-05-16 03:07:00,
2013-05-15 17:17:00,82.0,-99.9,30.09,ENE,73,7.0,14.0,-999,-99.99,,,-99.99,,2013-05-16 03:17:00,
2013-05-15 17:28:00,82.0,-99.9,30.09,East,88,9.0,14.0,-999,-99.99,,,-99.99,,2013-05-16 03:28:00,
2013-05-15 17:41:00,81.0,-99.9,30.10,East,93,9.0,15.0,-999,-99.99,,,-99.99,,2013-05-16 03:41:00,
2013-05-15 17:58:00,77.0,-99.9,30.11,East,82,13.0,18.0,-999,-99.99,,,-99.99,,2013-05-16 03:58:00,
2013-05-15 18:03:00,75.0,-99.9,30.12,East,86,12.0,18.0,-999,-99.99,,,-99.99,,2013-05-16 04:03:00,
2013-05-15 18:12:00,74.0,-99.9,30.13,East,98,6.0,12.0,-999,-99.99,,,-99.99,,2013-05-16 04:12:00,
2013-05-15 18:23:00,74.0,-99.9,30.13,East,96,7.0,11.0,-999,-99.99,,,-99.99,,2013-05-16 04:23:00,
2013-05-15 18:33:00,74.0,-99.9,30.13,SSE,152,4.0,9.0,-999,-99.99,,,-99.99,,2013-05-16 04:33:00,
2013-05-15 18:43:00,73.0,-99.9,30.13,South,171,4.0,8.0,-999,-99.99,,,-99.99,,2013-05-16 04:43:00,
2013-05-15 18:53:00,72.0,-99.9,30.13,SW,224,5.0,6.0,-999,-99.99,,,-99.99,,2013-05-16 04:53:00,
2013-05-15 19:03:00,72.0,-99.9,30.13,SW,230,6.0,7.0,-999,-99.99,,,-99.99,,2013-05-16 05:03:00,
2013-05-15 19:12:00,72.0,-99.9,30.13,SW,233,7.0,8.0,-999,-99.99,,,-99.99,,2013-05-16 05:12:00,
2013-05-15 19:22:00,72.0,-99.9,30.14,SW,226,6.0,8.0,-999,-99.99,,,-99.99,,2013-05-16 05:22:00,
2013-05-15 19:32:00,72.0,-99.9,30.14,SSW,208,5.0,6.0,-999,-99.99,,,-99.99,,2013-05-16 05:32:00,
2013-05-15 19:42:00,72.0,-99.9,30.14,SW,215,4.0,6.0,-999,-99.99,,,-99.99,,2013-05-16 05:42:00,
2013-05-15 19:52:00,72.0,-99.9,30.14,SW,235,8.0,9.0,-999,-99.99,,,-99.99,,2013-05-16 05:52:00,
2013-05-15 20:02:00,72.0,-99.9,30.15,West,260,6.0,7.0,-999,-99.99,,,-99.99,,2013-05-16 06:02:00,
2013-05-15 20:12:00,73.0,-99.9,30.15,WSW,255,7.0,10.0,-999,-99.99,,,-99.99,,2013-05-16 06:12:00,
2013-05-15 20:23:00,73.0,-99.9,30.15,WSW,256,8.0,9.0,-999,-99.99,,,-99.99,,2013-05-16 06:23:00,
2013-05-15 20:33:00,73.0,-99.9,30.15,WSW,247,8.0,10.0,-999,-99.99,,,-99.99,,2013-05-16 06:33:00,
2013-05-15 20:43:00,73.0,-99.9,30.15,WSW,237,7.0,10.0,-999,-99.99,,,-99.99,,2013-05-16 06:43:00,
2013-05-15 20:53:00,73.0,-99.9,30.15,SW,230,4.0,8.0,-999,-99.99,,,-99.99,,2013-05-16 06:53:00,
2013-05-15 21:02:00,73.0,-99.9,30.16,SW,235,4.0,5.0,-999,-99.99,,,-99.99,,2013-05-16 07:02:00,
2013-05-15 21:12:00,73.0,-99.9,30.16,SW,233,5.0,7.0,-999,-99.99,,,-99.99,,2013-05-16 07:12:00,
2013-05-15 21:24:00,73.0,-99.9,30.16,SW,219,3.0,6.0,-999,-99.99,,,-99.99,,2013-05-16 07:24:00,
2013-05-15 21:34:00,73.0,-99.9,30.16,SSW,212,2.0,6.0,-999,-99.99,,,-99.99,,2013-05-16 07:34:00,
2013-05-15 21:44:00,73.0,-99.9,30.16,SSW,204,2.0,4.0,-999,-99.99,,,-99.99,,2013-05-16 07:44:00,
2013-05-15 21:54:00,73.0,-99.9,30.16,SSW,211,3.0,4.0,-999,-99.99,,,-99.99,,2013-05-16 07:54:00,
2013-05-15 22:03:00,72.0,-99.9,30.17,South,187,2.0,5.0,-999,-99.99,,,-99.99,,2013-05-16 08:03:00,
2013-05-15 22:13:00,72.0,-99.9,30.17,South,186,2.0,4.0,-999,-99.99,,,-99.99,,2013-05-16 08:13:00,
2013-05-15 22:24:00,72.0,-99.9,30.17,SW,217,4.0,6.0,-999,-99.99,,,-99.99,,2013-05-16 08:24:00,
2013-05-15 22:35:00,72.0,-99.9,30.17,SSW,206,3.0,5.0,-999,-99.99,,,-99.99,,2013-05-16 08:35:00,
2013-05-15 22:45:00,72.0,-99.9,30.18,SSW,199,4.0,5.0,-999,-99.99,,,-99.99,,2013-05-16 08:45:00,
2013-05-15 22:55:00,72.0,-99.9,30.17,SSW,207,5.0,7.0,-999,-99.99,,,-99.99,,2013-05-16 08:55:00,
2013-05-15 23:04:00,71.0,-99.9,30.17,SW,220,3.0,3.0,-999,-99.99,,,-99.99,,2013-05-16 09:04:00,
2013-05-15 23:14:00,71.0,-99.9,30.17,SW,217,2.0,3.0,-999,-99.99,,,-99.99,,2013-05-16 09:14:00,
2013-05-15 23:24:00,72.0,-99.9,30.17,SW,227,3.0,4.0,-999,-99.99,,,-99.99,,2013-05-16 09:24:00,
2013-05-15 23:35:00,72.0,-99.9,30.17,SSE,166,2.0,5.0,-999,-99.99,,,-99.99,,2013-05-16 09:35:00,
2013-05-15 23:45:00,71.0,-99.9,30.17,South,191,4.0,4.0,-999,-99.99,,,-99.99,,2013-05-16 09:45:00,
2013-05-15 23:55:00,71.0,-99.9,30.17,SSW,200,1.0,4.0,-999,-99.99,,,-99.99,,2013-05-16 09:55:00,